Time;durP1;ratioP1;P1;durP2;ratioP2;P2;SDS_P1;SDS_P2;PMS_P1;PMS_P2;Temp;Humidity;BMP_temperature;BMP_pressure;BME280_temperature;BME280_humidity;BME280_pressure;Samples;Min_cycle;Max_cycle;Signal;HPM_P1;HPM_P2
2023/05/22 00:01:25;;;;;;;1.48;1.17;;;;;;;22.89;100.00;101470.94;10446012;28;20122;-77
2023/05/22 00:06:27;;;;;;;1.38;0.73;;;;;;;22.77;100.00;101466.75;10444683;28;20044;-77
2023/05/22 00:11:28;;;;;;;4.03;1.85;;;;;;;23.35;100.00;101471.06;10446536;28;20044;-79
2023/05/22 00:16:30;;;;;;;0.70;0.63;;;;;;;23.29;100.00;101466.78;10446707;28;20132;-79
2023/05/22 00:21:33;;;;;;;0.20;0.20;;;;;;;22.85;100.00;101460.50;10428974;28;20139;-79
2023/05/22 00:26:35;;;;;;;2.55;1.17;;;;;;;22.88;100.00;101440.31;10447269;28;20067;-79
2023/05/22 00:31:37;;;;;;;0.90;0.90;;;;;;;23.27;100.00;101437.91;10445320;28;20132;-79
2023/05/22 00:36:39;;;;;;;3.13;0.77;;;;;;;23.71;100.00;101432.66;10430245;28;20493;-79
2023/05/22 00:41:40;;;;;;;1.08;0.90;;;;;;;23.93;100.00;101426.97;10445087;28;20412;-79
2023/05/22 00:46:42;;;;;;;0.85;0.80;;;;;;;23.40;100.00;101422.75;10438594;28;20143;-80
2023/05/22 00:51:44;;;;;;;1.17;0.88;;;;;;;23.40;100.00;101420.13;10445340;28;20040;-79
2023/05/22 00:56:47;;;;;;;0.95;0.70;;;;;;;23.85;100.00;101420.97;10446110;28;20612;-79
2023/05/22 01:01:49;;;;;;;1.25;0.85;;;;;;;24.60;100.00;101418.41;10430547;28;20488;-80
2023/05/22 01:06:52;;;;;;;0.73;0.50;;;;;;;24.77;100.00;101417.13;10455231;28;20048;-79
2023/05/22 01:12:04;;;;;;;2.95;0.80;;;;;;;24.31;100.00;101408.56;10451749;28;20041;-80
2023/05/22 01:17:24;;;;;;;0.22;0.22;;;;;;;23.40;100.00;101401.72;10453052;28;20428;-79
2023/05/22 01:22:41;;;;;;;0.38;0.20;;;;;;;23.79;100.00;101392.19;10455334;28;20060;-79
2023/05/22 01:28:07;;;;;;;1.42;0.57;;;;;;;24.60;100.00;101394.72;10449646;28;20056;-79
2023/05/22 01:33:15;;;;;;;1.05;0.63;;;;;;;24.58;100.00;101393.88;10451889;28;20140;-79
2023/05/22 01:38:20;;;;;;;1.60;0.25;;;;;;;24.32;100.00;101392.72;10452988;28;20202;-80
2023/05/22 01:43:22;;;;;;;0.55;0.40;;;;;;;23.91;100.00;101397.16;10440126;28;20288;-79
2023/05/22 01:48:23;;;;;;;0.52;0.43;;;;;;;23.80;100.00;101401.78;10435343;28;20582;-79
2023/05/22 01:53:50;;;;;;;2.72;0.82;;;;;;;23.71;100.00;101406.38;10436296;28;20055;-80
2023/05/22 01:59:09;;;;;;;1.23;0.85;;;;;;;23.82;100.00;101407.88;10433020;28;20041;-79
2023/05/22 02:04:13;;;;;;;1.70;0.60;;;;;;;24.50;100.00;101395.81;10434218;28;20044;-78
2023/05/22 02:09:17;;;;;;;1.45;0.70;;;;;;;23.47;100.00;101381.41;10438012;28;20041;-78
2023/05/22 02:14:19;;;;;;;0.90;0.80;;;;;;;22.97;100.00;101387.59;10450683;28;20041;-78
2023/05/22 02:19:21;;;;;;;2.17;0.93;;;;;;;22.75;100.00;101387.09;10449464;28;20136;-78
2023/05/22 02:24:22;;;;;;;1.45;0.77;;;;;;;23.18;100.00;101369.72;10449640;28;20447;-79
2023/05/22 02:29:25;;;;;;;1.10;0.77;;;;;;;24.32;100.00;101366.41;10449327;28;20049;-78
2023/05/22 02:34:27;;;;;;;0.75;0.50;;;;;;;24.27;100.00;101357.75;10433420;28;20057;-79
2023/05/22 02:39:29;;;;;;;2.35;0.98;;;;;;;23.71;100.00;101353.75;10451829;28;20132;-78
2023/05/22 02:44:31;;;;;;;2.35;1.27;;;;;;;23.29;100.00;101351.09;10453282;28;20094;-78
2023/05/22 02:49:32;;;;;;;1.02;0.57;;;;;;;23.00;100.00;101351.66;10434465;28;20091;-78
2023/05/22 02:54:34;;;;;;;1.65;0.50;;;;;;;23.19;100.00;101347.81;10439885;28;20462;-79
2023/05/22 02:59:37;;;;;;;0.70;0.60;;;;;;;23.27;100.00;101342.41;10448578;28;20048;-78
2023/05/22 03:04:40;;;;;;;0.22;0.22;;;;;;;23.81;100.00;101338.63;10432208;28;20049;-79
2023/05/22 03:09:42;;;;;;;0.50;0.40;;;;;;;24.17;100.00;101345.69;10448260;28;20408;-80
2023/05/22 03:14:45;;;;;;;0.95;0.65;;;;;;;24.05;100.00;101350.38;10449326;28;20246;-80
2023/05/22 03:19:47;;;;;;;1.70;0.63;;;;;;;23.58;100.00;101360.16;10449012;28;20045;-79
2023/05/22 03:24:49;;;;;;;1.20;0.60;;;;;;;23.53;100.00;101356.75;10448372;28;20074;-79
2023/05/22 03:29:51;;;;;;;0.55;0.52;;;;;;;23.67;100.00;101362.59;10448542;28;20056;-79
2023/05/22 03:34:55;;;;;;;0.52;0.30;;;;;;;22.74;100.00;101356.50;10447931;28;20103;-79
2023/05/22 03:39:57;;;;;;;0.40;0.40;;;;;;;22.86;100.00;101351.91;10447547;28;20037;-79
2023/05/22 03:45:03;;;;;;;0.93;0.38;;;;;;;22.80;100.00;101347.63;10437797;28;20407;-79
2023/05/22 03:50:05;;;;;;;0.60;0.43;;;;;;;23.19;100.00;101337.28;10446319;28;20045;-79
2023/05/22 03:55:07;;;;;;;0.70;0.50;;;;;;;22.63;100.00;101345.31;10447466;28;20045;-80
2023/05/22 04:00:10;;;;;;;0.47;0.30;;;;;;;22.86;100.00;101337.00;10446873;28;20053;-80
2023/05/22 04:05:15;;;;;;;0.65;0.52;;;;;;;23.42;100.00;101342.06;10449084;28;20126;-80
2023/05/22 04:10:17;;;;;;;2.38;0.65;;;;;;;23.39;100.00;101336.88;10446715;28;20512;-80
2023/05/22 04:15:20;;;;;;;0.65;0.63;;;;;;;23.33;100.00;101331.75;10445382;28;20508;-80
2023/05/22 04:20:22;;;;;;;0.17;0.17;;;;;;;22.80;100.00;101332.75;10446098;28;20077;-80
2023/05/22 04:25:24;;;;;;;1.05;0.50;;;;;;;22.21;100.00;101327.59;10447460;28;20592;-80
2023/05/22 04:30:26;;;;;;;0.47;0.45;;;;;;;22.70;100.00;101319.81;10446390;28;20044;-79
2023/05/22 04:35:28;;;;;;;0.73;0.65;;;;;;;22.33;100.00;101321.28;10428389;28;20045;-79
2023/05/22 04:40:32;;;;;;;1.13;0.85;;;;;;;22.02;100.00;101316.50;10443368;28;20047;-80
2023/05/22 04:45:34;;;;;;;2.25;0.82;;;;;;;22.49;100.00;101309.66;10455975;28;20045;-79
2023/05/22 04:50:37;;;;;;;1.05;0.60;;;;;;;23.31;100.00;101302.00;10458669;28;20136;-79
2023/05/22 04:55:40;;;;;;;0.65;0.40;;;;;;;22.71;100.00;101314.53;10457630;28;20143;-80
2023/05/22 05:00:42;;;;;;;0.47;0.43;;;;;;;22.26;100.00;101338.00;10459408;28;20047;-80
2023/05/22 05:05:44;;;;;;;0.88;0.45;;;;;;;22.00;100.00;101334.91;10459975;28;20492;-80
2023/05/22 05:10:47;;;;;;;0.47;0.40;;;;;;;22.54;100.00;101350.69;10450396;28;20045;-80
2023/05/22 05:15:49;;;;;;;0.50;0.38;;;;;;;23.33;100.00;101342.28;10442609;28;20502;-80
2023/05/22 05:20:51;;;;;;;2.92;1.35;;;;;;;23.12;100.00;101344.38;10445309;28;20060;-79
2023/05/22 05:25:52;;;;;;;0.25;0.25;;;;;;;23.73;100.00;101351.94;10459217;28;20045;-79
2023/05/22 05:30:54;;;;;;;0.30;0.30;;;;;;;23.04;100.00;101362.09;10437550;28;20044;-79
2023/05/22 05:36:19;;;;;;;0.40;0.20;;;;;;;23.97;100.00;101348.84;10422899;28;20061;-79
2023/05/22 05:41:22;;;;;;;1.02;0.22;;;;;;;23.06;100.00;101370.78;10448415;28;20076;-79
2023/05/22 05:46:31;;;;;;;0.20;0.20;;;;;;;22.88;100.00;101365.88;10443068;28;20060;-77
2023/05/22 05:51:33;;;;;;;2.47;1.17;;;;;;;23.61;100.00;101360.09;10447875;28;20033;-77
2023/05/22 05:56:35;;;;;;;1.95;1.25;;;;;;;24.75;100.00;101363.63;10451079;28;20072;-77
2023/05/22 06:01:38;;;;;;;0.40;0.40;;;;;;;23.90;100.00;101371.75;10433117;28;20389;-77
2023/05/22 06:06:46;;;;;;;0.52;0.30;;;;;;;24.00;100.00;101364.53;10449470;28;20467;-77
2023/05/22 06:11:48;;;;;;;0.47;0.38;;;;;;;23.35;100.00;101372.00;10445875;28;20041;-76
2023/05/22 06:16:49;;;;;;;0.75;0.43;;;;;;;23.36;100.00;101373.75;10440526;28;20078;-77
2023/05/22 06:21:52;;;;;;;1.50;1.02;;;;;;;23.39;100.00;101360.56;10426992;28;20496;-77
2023/05/22 06:26:55;;;;;;;1.38;0.90;;;;;;;23.30;100.00;101371.25;10415419;28;20152;-77
2023/05/22 06:31:57;;;;;;;1.75;1.25;;;;;;;23.57;100.00;101376.81;10427894;28;20044;-77
2023/05/22 06:36:59;;;;;;;1.83;0.95;;;;;;;23.88;100.00;101377.06;10430109;28;20076;-77
2023/05/22 06:42:06;;;;;;;2.03;1.33;;;;;;;23.81;100.00;101379.84;10434746;28;20067;-77
2023/05/22 06:47:51;;;;;;;3.67;0.60;;;;;;;24.42;100.00;101374.09;10447704;28;20052;-77
2023/05/22 06:52:55;;;;;;;0.95;0.63;;;;;;;24.14;100.00;101382.66;10428205;28;20041;-77
2023/05/22 06:57:57;;;;;;;1.50;0.90;;;;;;;24.70;100.00;101385.69;10448947;28;20131;-77
2023/05/22 07:03:00;;;;;;;1.08;0.43;;;;;;;26.10;100.00;101379.16;10448104;28;20057;-77
2023/05/22 07:08:07;;;;;;;0.95;0.68;;;;;;;26.02;100.00;101382.00;10448614;28;20057;-77
2023/05/22 07:13:09;;;;;;;1.23;0.70;;;;;;;25.69;100.00;101386.53;10448227;28;20045;-77
2023/05/22 07:18:11;;;;;;;3.88;1.05;;;;;;;26.25;100.00;101386.56;10432160;28;20141;-77
2023/05/22 07:23:15;;;;;;;1.20;1.10;;;;;;;26.42;100.00;101387.81;10448282;28;20043;-77
2023/05/22 07:28:17;;;;;;;2.63;0.85;;;;;;;27.40;100.00;101391.44;10448162;28;20052;-77
2023/05/22 07:33:34;;;;;;;0.90;0.65;;;;;;;28.00;100.00;101387.47;10443529;28;20049;-77
2023/05/22 07:38:36;;;;;;;1.20;0.88;;;;;;;27.95;100.00;101392.09;10448248;28;20500;-77
2023/05/22 07:43:38;;;;;;;2.58;1.17;;;;;;;27.59;100.00;101384.66;10444505;28;20392;-77
2023/05/22 07:48:41;;;;;;;1.27;0.85;;;;;;;27.89;100.00;101392.34;10447523;28;20045;-78
2023/05/22 07:53:43;;;;;;;0.85;0.80;;;;;;;28.80;100.00;101386.00;10431294;28;20041;-77
2023/05/22 07:58:47;;;;;;;0.45;0.45;;;;;;;29.22;100.00;101392.13;10431098;28;20056;-77
2023/05/22 08:03:54;;;;;;;5.50;0.95;;;;;;;28.01;100.00;101400.63;10448043;28;20131;-77
2023/05/22 08:08:56;;;;;;;11.80;1.48;;;;;;;28.44;100.00;101394.56;10448113;28;20040;-77
2023/05/22 08:13:57;;;;;;;5.00;1.27;;;;;;;28.44;100.00;101399.88;10445709;28;20056;-78
2023/05/22 08:18:59;;;;;;;1.15;1.02;;;;;;;29.66;100.00;101391.91;10451928;28;20059;-78
2023/05/22 08:24:01;;;;;;;2.78;1.55;;;;;;;28.59;100.00;101398.34;10450540;28;20048;-78
2023/05/22 08:29:05;;;;;;;2.20;1.27;;;;;;;28.55;100.00;101402.06;10450474;28;20577;-78
2023/05/22 08:34:09;;;;;;;2.83;1.58;;;;;;;27.20;100.00;101404.53;10449840;28;20055;-78
2023/05/22 08:39:13;;;;;;;2.03;1.23;;;;;;;28.68;100.00;101395.31;10450708;28;20045;-78
2023/05/22 08:44:15;;;;;;;4.53;1.42;;;;;;;28.38;100.00;101393.03;10449447;28;20045;-79
2023/05/22 08:49:20;;;;;;;2.92;2.13;;;;;;;28.41;100.00;101392.03;10449959;28;20045;-79
2023/05/22 08:54:26;;;;;;;2.03;0.82;;;;;;;28.79;100.00;101400.19;10450141;28;20136;-79
2023/05/22 08:59:29;;;;;;;3.70;1.48;;;;;;;29.44;100.00;101387.59;10473826;28;20053;-79
2023/05/22 09:04:31;;;;;;;2.83;1.13;;;;;;;28.27;100.00;101387.28;10478858;28;20040;-79
2023/05/22 09:09:36;;;;;;;2.15;1.48;;;;;;;29.26;100.00;101383.09;10498917;28;20044;-79
2023/05/22 09:14:41;;;;;;;5.13;2.38;;;;;;;29.04;100.00;101389.38;10474456;28;20036;-79
2023/05/22 09:19:46;;;;;;;2.05;1.52;;;;;;;29.15;100.00;101382.72;10487112;28;20496;-78
2023/05/22 09:24:48;;;;;;;2.30;1.38;;;;;;;29.07;100.00;101378.63;10498406;28;20032;-80
2023/05/22 09:29:52;;;;;;;3.10;1.88;;;;;;;29.68;100.00;101379.41;10490309;28;20056;-78
2023/05/22 09:35:01;;;;;;;1.88;1.67;;;;;;;29.81;100.00;101384.16;10486507;28;20130;-77
2023/05/22 09:40:10;;;;;;;2.85;1.42;;;;;;;28.66;100.00;101383.91;10482059;28;20059;-78
2023/05/22 09:45:12;;;;;;;2.70;1.30;;;;;;;31.20;99.08;101381.69;10501613;28;20388;-77
2023/05/22 09:50:14;;;;;;;0.63;0.63;;;;;;;29.48;100.00;101382.13;10484119;28;20091;-79
2023/05/22 09:55:18;;;;;;;2.42;1.33;;;;;;;29.08;100.00;101385.63;10506747;28;20064;-77
2023/05/22 10:00:22;;;;;;;2.40;1.10;;;;;;;29.83;100.00;101382.25;10484293;28;20123;-78
2023/05/22 10:05:30;;;;;;;1.48;1.10;;;;;;;30.92;93.15;101384.00;10495973;28;20131;-79
2023/05/22 10:10:33;;;;;;;4.38;1.15;;;;;;;30.13;97.24;101373.78;10482932;28;20087;-77
2023/05/22 10:15:35;;;;;;;1.30;1.05;;;;;;;31.04;89.32;101377.16;10503439;28;20044;-77
2023/05/22 10:20:38;;;;;;;1.55;0.95;;;;;;;30.60;91.18;101378.53;10483535;28;20491;-78
2023/05/22 10:25:40;;;;;;;4.65;1.90;;;;;;;31.02;89.45;101374.56;10474553;28;20048;-77
2023/05/22 10:30:57;;;;;;;1.35;1.02;;;;;;;31.46;97.03;101373.13;10465967;28;20048;-78
2023/05/22 10:36:06;;;;;;;2.80;0.93;;;;;;;30.95;91.83;101369.66;10499821;28;20106;-78
2023/05/22 10:41:09;;;;;;;1.33;0.90;;;;;;;32.61;90.59;101360.47;10490119;28;20381;-78
2023/05/22 10:46:11;;;;;;;1.35;1.02;;;;;;;30.74;91.22;101363.66;10490432;28;20045;-77
2023/05/22 10:51:16;;;;;;;1.70;0.73;;;;;;;31.78;84.05;101356.31;10498519;28;20037;-77
2023/05/22 10:56:18;;;;;;;8.88;1.73;;;;;;;31.52;87.45;101348.00;10496535;28;20083;-78
2023/05/22 11:01:24;;;;;;;2.10;1.45;;;;;;;32.26;83.90;101356.28;10489269;28;20132;-77
2023/05/22 11:06:44;;;;;;;1.20;0.85;;;;;;;32.38;86.18;101358.22;10477919;28;20072;-78
2023/05/22 11:11:46;;;;;;;0.60;0.50;;;;;;;33.72;83.27;101350.91;10489344;28;20063;-78
2023/05/22 11:16:48;;;;;;;0.40;0.40;;;;;;;31.53;86.95;101363.03;10481029;28;20080;-79
2023/05/22 11:21:50;;;;;;;1.70;1.10;;;;;;;33.13;88.70;101351.09;10494538;28;20063;-79
2023/05/22 11:27:21;;;;;;;1.95;1.33;;;;;;;31.89;87.01;101345.94;10458480;28;20496;-79
2023/05/22 11:32:24;;;;;;;0.98;0.57;;;;;;;30.78;88.58;101351.94;10480694;28;20411;-78
2023/05/22 11:37:26;;;;;;;0.60;0.60;;;;;;;31.10;88.02;101355.56;10497565;28;20044;-78
2023/05/22 11:42:28;;;;;;;0.68;0.63;;;;;;;33.32;81.88;101345.50;10469694;28;20044;-78
2023/05/22 11:47:30;;;;;;;2.65;0.77;;;;;;;30.85;87.78;101350.69;10465501;28;20408;-79
2023/05/22 11:52:33;;;;;;;1.95;1.15;;;;;;;30.13;88.14;101357.84;10497493;28;20040;-78
2023/05/22 11:57:35;;;;;;;1.67;0.88;;;;;;;31.09;88.25;101347.69;10497901;28;20048;-78
2023/05/22 12:02:37;;;;;;;0.50;0.50;;;;;;;31.01;87.39;101345.38;10482849;28;20044;-78
2023/05/22 12:07:40;;;;;;;1.60;0.98;;;;;;;30.47;85.99;101350.84;10498105;28;20040;-79
2023/05/22 12:12:42;;;;;;;1.65;1.00;;;;;;;30.58;85.81;101348.50;10503359;28;20503;-78
2023/05/22 12:17:44;;;;;;;0.75;0.73;;;;;;;32.05;84.16;101335.22;10473368;28;20045;-78
2023/05/22 12:22:47;;;;;;;1.50;0.88;;;;;;;32.41;82.73;101333.19;10486617;28;20128;-78
2023/05/22 12:27:49;;;;;;;2.05;0.60;;;;;;;30.46;85.83;101335.81;10467521;28;20127;-78
2023/05/22 12:32:51;;;;;;;0.80;0.47;;;;;;;30.29;85.42;101337.53;10508896;28;20036;-79
2023/05/22 12:37:53;;;;;;;1.00;0.57;;;;;;;30.23;85.66;101338.69;10481089;28;20094;-78
2023/05/22 12:42:57;;;;;;;0.70;0.50;;;;;;;29.63;84.87;101330.97;10495853;28;20453;-78
2023/05/22 12:47:59;;;;;;;0.57;0.38;;;;;;;30.21;84.47;101334.41;10479112;28;20055;-77
2023/05/22 12:53:01;;;;;;;0.63;0.35;;;;;;;31.51;81.14;101319.63;10513349;28;20094;-77
2023/05/22 12:58:03;;;;;;;0.80;0.63;;;;;;;32.17;80.56;101325.66;10479860;28;20059;-77
2023/05/22 13:03:05;;;;;;;0.70;0.55;;;;;;;32.87;79.92;101318.88;10518872;28;20032;-77
2023/05/22 13:08:07;;;;;;;0.95;0.63;;;;;;;33.00;77.58;101314.47;10469892;28;20400;-76
2023/05/22 13:13:08;;;;;;;0.68;0.47;;;;;;;30.11;85.12;101323.38;10469453;28;20492;-78
2023/05/22 13:18:10;;;;;;;1.45;0.77;;;;;;;30.99;83.78;101313.56;10471827;28;20052;-78
2023/05/22 13:23:12;;;;;;;0.50;0.50;;;;;;;31.79;78.17;101307.44;10476390;28;20044;-77
2023/05/22 13:28:20;;;;;;;1.30;0.70;;;;;;;33.06;77.77;101297.22;10527917;28;20048;-77
2023/05/22 13:33:21;;;;;;;0.50;0.50;;;;;;;31.30;77.92;101314.56;10504171;28;20048;-75
2023/05/22 13:38:23;;;;;;;0.50;0.50;;;;;;;31.36;78.50;101312.50;10491245;28;20044;-77
2023/05/22 13:43:25;;;;;;;0.43;0.43;;;;;;;31.00;80.51;101311.75;10491840;28;20040;-76
2023/05/22 13:48:26;;;;;;;1.10;0.90;;;;;;;29.83;85.00;101323.84;10498174;28;20040;-77
2023/05/22 13:53:28;;;;;;;1.30;0.95;;;;;;;29.63;86.85;101312.41;10488497;28;20479;-78
2023/05/22 13:58:30;;;;;;;1.85;0.68;;;;;;;30.99;84.80;101305.56;10500240;28;20418;-77
2023/05/22 14:03:32;;;;;;;0.65;0.30;;;;;;;31.52;82.62;101313.38;10442768;28;20049;-79
2023/05/22 14:08:34;;;;;;;2.20;0.90;;;;;;;29.75;82.43;101310.94;10514472;28;20052;-81
2023/05/22 14:13:36;;;;;;;1.02;0.95;;;;;;;30.67;84.21;101309.97;10489259;28;20406;-79
2023/05/22 14:18:38;;;;;;;1.25;0.65;;;;;;;31.96;73.48;101302.00;10486862;28;20050;-81
2023/05/22 14:23:39;;;;;;;0.57;0.47;;;;;;;32.32;76.13;101307.06;10501110;28;20053;-80
2023/05/22 14:28:41;;;;;;;2.10;0.57;;;;;;;31.44;79.68;101310.28;10490219;28;20500;-80
2023/05/22 14:33:42;;;;;;;0.20;0.20;;;;;;;31.13;81.11;101306.66;10482470;28;20498;-80
2023/05/22 14:38:45;;;;;;;0.60;0.30;;;;;;;30.56;82.67;101309.66;10483509;28;20053;-79
2023/05/22 14:43:47;;;;;;;0.38;0.35;;;;;;;29.67;87.74;101308.69;10510413;28;20040;-79
2023/05/22 14:48:51;;;;;;;1.13;0.85;;;;;;;27.61;100.00;101351.03;10489669;28;20131;-79
2023/05/22 14:53:52;;;;;;;1.17;0.90;;;;;;;26.76;100.00;101368.22;10482342;28;20135;-79
2023/05/22 14:58:54;;;;;;;1.10;0.55;;;;;;;25.66;100.00;101369.88;10478945;28;20056;-81
2023/05/22 15:03:55;;;;;;;0.50;0.40;;;;;;;24.90;100.00;101383.44;10477228;28;20044;-80
2023/05/22 15:08:57;;;;;;;0.73;0.70;;;;;;;23.93;100.00;101395.41;10494252;28;20044;-80
2023/05/22 15:13:59;;;;;;;0.10;0.10;;;;;;;23.97;100.00;101399.69;10486440;28;20053;-80
2023/05/22 15:19:00;;;;;;;0.57;0.40;;;;;;;23.80;100.00;101421.06;10494002;28;20048;-78
2023/05/22 15:24:02;;;;;;;1.85;1.15;;;;;;;23.90;100.00;101433.13;10485376;28;20049;-78
2023/05/22 15:29:04;;;;;;;0.10;0.10;;;;;;;25.06;100.00;101420.81;10477110;28;20070;-77
2023/05/22 15:34:06;;;;;;;1.77;0.70;;;;;;;25.03;100.00;101421.72;10470940;28;20127;-78
2023/05/22 15:39:08;;;;;;;4.38;0.38;;;;;;;25.21;100.00;101412.47;10488440;28;20055;-78
2023/05/22 15:44:10;;;;;;;1.67;0.60;;;;;;;25.88;100.00;101406.16;10483682;28;20138;-79
2023/05/22 15:49:11;;;;;;;0.17;0.17;;;;;;;25.38;100.00;101411.13;10487476;28;20052;-79
2023/05/22 15:54:13;;;;;;;1.05;0.65;;;;;;;25.26;100.00;101410.59;10499644;28;20051;-80
2023/05/22 15:59:15;;;;;;;0.55;0.40;;;;;;;25.16;100.00;101417.00;10467037;28;20064;-79
2023/05/22 16:04:17;;;;;;;0.70;0.45;;;;;;;25.13;100.00;101414.47;10464901;28;20404;-78
2023/05/22 16:09:18;;;;;;;0.85;0.55;;;;;;;25.87;100.00;101407.13;10487474;28;20051;-80
2023/05/22 16:14:20;;;;;;;0.25;0.25;;;;;;;26.50;100.00;101409.56;10471393;28;20048;-79
2023/05/22 16:19:21;;;;;;;2.53;0.75;;;;;;;25.92;100.00;101405.19;10478819;28;20048;-79
2023/05/22 16:24:25;;;;;;;1.40;0.63;;;;;;;26.16;100.00;101405.38;10502379;28;20040;-81
2023/05/22 16:29:26;;;;;;;0.82;0.47;;;;;;;26.44;100.00;101415.03;10495013;28;20488;-79
2023/05/22 16:34:30;;;;;;;1.52;0.70;;;;;;;26.28;100.00;101409.41;10507247;28;20045;-80
2023/05/22 16:39:32;;;;;;;1.35;0.98;;;;;;;25.86;100.00;101410.66;10510057;28;20077;-80
2023/05/22 16:44:33;;;;;;;1.13;1.00;;;;;;;25.78;100.00;101412.66;10507369;28;20076;-80
2023/05/22 16:49:35;;;;;;;1.23;0.73;;;;;;;25.03;100.00;101414.72;10484216;28;20049;-79
2023/05/22 16:54:37;;;;;;;1.20;0.88;;;;;;;24.85;100.00;101423.06;10475096;28;20048;-80
2023/05/22 16:59:38;;;;;;;0.32;0.32;;;;;;;25.08;100.00;101426.88;10481542;28;20052;-80
2023/05/22 17:04:40;;;;;;;0.60;0.60;;;;;;;24.97;100.00;101428.06;10491678;28;20119;-79
2023/05/22 17:09:42;;;;;;;0.98;0.77;;;;;;;24.67;100.00;101430.56;10491689;28;20045;-77
2023/05/22 17:14:43;;;;;;;0.25;0.25;;;;;;;24.35;100.00;101434.78;10471517;28;20041;-76
2023/05/22 17:19:45;;;;;;;0.65;0.60;;;;;;;24.67;100.00;101432.31;10485308;28;20037;-78
2023/05/22 17:24:47;;;;;;;0.17;0.13;;;;;;;24.33;100.00;101441.84;10470084;28;20247;-79
2023/05/22 17:29:49;;;;;;;0.17;0.17;;;;;;;24.29;100.00;101437.56;10474508;28;20474;-77
2023/05/22 17:34:51;;;;;;;1.50;0.55;;;;;;;24.64;100.00;101430.59;10470346;28;20235;-76
2023/05/22 17:39:53;;;;;;;0.98;0.57;;;;;;;24.94;100.00;101432.53;10470066;28;20521;-79
2023/05/22 17:44:54;;;;;;;1.55;0.20;;;;;;;24.61;100.00;101445.59;10480994;28;20488;-79
2023/05/22 17:49:56;;;;;;;0.70;0.30;;;;;;;24.37;100.00;101438.28;10483594;28;20044;-77
2023/05/22 17:54:57;;;;;;;3.97;0.80;;;;;;;24.52;100.00;101447.56;10477313;28;20427;-79
2023/05/22 17:59:59;;;;;;;1.10;0.57;;;;;;;24.34;100.00;101458.53;10483552;28;20053;-78
2023/05/22 18:05:04;;;;;;;0.20;0.20;;;;;;;24.43;100.00;101463.56;10475954;28;20044;-77
2023/05/22 18:10:07;;;;;;;1.13;0.43;;;;;;;24.19;100.00;101471.16;10496321;28;20047;-77
2023/05/22 18:15:10;;;;;;;1.00;0.60;;;;;;;24.21;100.00;101471.09;10463090;28;20497;-79
2023/05/22 18:20:12;;;;;;;0.10;0.10;;;;;;;23.52;100.00;101478.63;10493851;28;20084;-77
2023/05/22 18:25:14;;;;;;;0.50;0.25;;;;;;;23.69;100.00;101487.06;10498147;28;20044;-76
2023/05/22 18:30:16;;;;;;;0.85;0.35;;;;;;;23.54;100.00;101504.00;10476669;28;20052;-77
2023/05/22 18:35:17;;;;;;;0.63;0.47;;;;;;;23.30;100.00;101510.56;10493456;28;20407;-77
2023/05/22 18:40:19;;;;;;;0.47;0.35;;;;;;;23.42;100.00;101512.97;10476603;28;20044;-79
2023/05/22 18:45:21;;;;;;;0.30;0.25;;;;;;;23.20;100.00;101527.38;10479211;28;20097;-77
2023/05/22 18:50:23;;;;;;;0.82;0.52;;;;;;;23.25;100.00;101523.78;10475030;28;20076;-78
2023/05/22 18:55:24;;;;;;;0.57;0.25;;;;;;;23.35;100.00;101526.28;10492062;28;20082;-78
2023/05/22 19:00:26;;;;;;;0.00;0.00;;;;;;;23.12;100.00;101528.34;10482315;28;20504;-79
2023/05/22 19:05:27;;;;;;;0.52;0.40;;;;;;;22.80;100.00;101537.63;10480069;28;20476;-78
2023/05/22 19:10:29;;;;;;;0.10;0.10;;;;;;;22.43;100.00;101546.03;10451438;28;20071;-78
2023/05/22 19:15:33;;;;;;;0.65;0.35;;;;;;;22.35;100.00;101555.75;10476425;28;20053;-78
2023/05/22 19:20:34;;;;;;;0.10;0.10;;;;;;;22.14;100.00;101552.50;10477767;28;20055;-78
2023/05/22 19:25:36;;;;;;;0.80;0.22;;;;;;;22.08;100.00;101559.56;10477110;28;20117;-79
2023/05/22 19:30:38;;;;;;;0.25;0.25;;;;;;;21.84;100.00;101578.19;10482590;28;20119;-79
2023/05/22 19:35:40;;;;;;;1.35;0.68;;;;;;;21.97;100.00;101578.06;10446885;28;20566;-78
2023/05/22 19:40:42;;;;;;;0.65;0.35;;;;;;;21.68;100.00;101571.34;10478517;28;20036;-78
2023/05/22 19:45:44;;;;;;;0.10;0.10;;;;;;;21.67;100.00;101572.25;10459779;28;20083;-78
2023/05/22 19:50:46;;;;;;;0.50;0.50;;;;;;;21.61;100.00;101581.03;10472942;28;20131;-77
2023/05/22 19:55:47;;;;;;;0.90;0.30;;;;;;;21.52;100.00;101574.09;10463080;28;20037;-78
2023/05/22 20:00:49;;;;;;;0.65;0.50;;;;;;;21.64;100.00;101585.38;10476182;28;20488;-78
2023/05/22 20:05:54;;;;;;;0.20;0.20;;;;;;;21.60;100.00;101594.16;10472331;28;20052;-78
2023/05/22 20:10:56;;;;;;;1.13;0.22;;;;;;;21.69;100.00;101587.06;10488336;28;20044;-77
2023/05/22 20:16:01;;;;;;;1.00;0.63;;;;;;;21.72;100.00;101596.66;10455404;28;20047;-77
2023/05/22 20:21:03;;;;;;;0.50;0.30;;;;;;;22.06;100.00;101598.94;10474534;28;20047;-77
2023/05/22 20:26:05;;;;;;;1.88;0.15;;;;;;;21.56;100.00;101615.13;10471853;28;20127;-77
2023/05/22 20:31:06;;;;;;;0.32;0.32;;;;;;;21.63;100.00;101617.75;10466911;28;20049;-77
2023/05/22 20:36:08;;;;;;;1.08;0.65;;;;;;;22.12;100.00;101627.75;10492780;28;20035;-77
2023/05/22 20:41:11;;;;;;;0.28;0.20;;;;;;;21.94;100.00;101627.91;10502853;28;20048;-77
2023/05/22 20:46:13;;;;;;;0.30;0.20;;;;;;;22.76;100.00;101629.63;10488942;28;20072;-77
2023/05/22 20:51:16;;;;;;;0.63;0.40;;;;;;;21.45;100.00;101648.44;10491765;28;20055;-77
2023/05/22 20:56:18;;;;;;;1.17;0.28;;;;;;;21.54;100.00;101650.97;10483301;28;20037;-77
2023/05/22 21:01:20;;;;;;;1.02;0.77;;;;;;;21.40;100.00;101652.84;10474807;28;20123;-77
2023/05/22 21:06:22;;;;;;;0.68;0.22;;;;;;;20.65;100.00;101668.06;10484534;28;20492;-78
2023/05/22 21:11:25;;;;;;;0.95;0.63;;;;;;;20.49;100.00;101676.84;10482754;28;20079;-78
2023/05/22 21:16:27;;;;;;;1.60;0.70;;;;;;;21.20;100.00;101666.94;10452910;28;20510;-77
2023/05/22 21:21:28;;;;;;;0.43;0.20;;;;;;;21.05;100.00;101678.38;10481564;28;20106;-78
2023/05/22 21:26:30;;;;;;;0.45;0.32;;;;;;;21.83;100.00;101672.59;10465713;28;20059;-78
2023/05/22 21:31:32;;;;;;;0.20;0.20;;;;;;;21.30;100.00;101677.38;10491259;28;20048;-77
2023/05/22 21:36:36;;;;;;;0.70;0.50;;;;;;;21.17;100.00;101693.16;10506641;28;20513;-78
2023/05/22 21:41:40;;;;;;;0.77;0.57;;;;;;;20.71;100.00;101678.50;10483107;28;20044;-77
2023/05/22 21:46:42;;;;;;;0.68;0.50;;;;;;;20.51;100.00;101682.94;10492240;28;20532;-77
2023/05/22 21:51:44;;;;;;;2.75;0.88;;;;;;;21.03;100.00;101684.53;10494564;28;20068;-76
2023/05/22 21:56:46;;;;;;;0.25;0.20;;;;;;;21.17;100.00;101672.22;10487199;28;20127;-76
2023/05/22 22:01:47;;;;;;;0.52;0.40;;;;;;;20.59;100.00;101697.72;10476263;28;20144;-76
2023/05/22 22:06:49;;;;;;;0.73;0.60;;;;;;;19.72;100.00;101703.94;10494788;28;20040;-77
2023/05/22 22:11:51;;;;;;;0.93;0.50;;;;;;;19.90;100.00;101703.97;10479187;28;20056;-78
2023/05/22 22:16:53;;;;;;;0.32;0.20;;;;;;;20.07;100.00;101713.53;10484526;28;20415;-76
2023/05/22 22:21:55;;;;;;;1.13;0.60;;;;;;;19.66;100.00;101713.53;10479760;28;20465;-78
2023/05/22 22:26:57;;;;;;;0.28;0.20;;;;;;;19.86;100.00;101723.13;10467254;28;20179;-78
2023/05/22 22:31:58;;;;;;;0.25;0.22;;;;;;;19.68;100.00;101710.03;10474174;28;20403;-78
2023/05/22 22:37:00;;;;;;;0.40;0.20;;;;;;;19.80;100.00;101707.41;10484552;28;20040;-77
2023/05/22 22:42:04;;;;;;;0.40;0.40;;;;;;;20.28;100.00;101697.84;10498813;28;20136;-78
2023/05/22 22:47:06;;;;;;;0.60;0.10;;;;;;;20.12;100.00;101701.34;10478529;28;20044;-77
2023/05/22 22:52:10;;;;;;;1.63;0.88;;;;;;;19.95;100.00;101686.53;10490689;28;20054;-78
2023/05/22 22:57:12;;;;;;;0.88;0.35;;;;;;;20.49;100.00;101697.78;10475856;28;20371;-77
2023/05/22 23:02:13;;;;;;;0.73;0.63;;;;;;;20.07;100.00;101703.97;10491941;28;20052;-77